sensor_id;sensor_type;location;lat;lon;timestamp;pressure;altitude;pressure_sealevel;temperature;humidity
75438;BME280;64015;49.392;15.582;2023-09-08T00:01:24;96427.25;;;11.87;100.00
75438;BME280;64015;49.392;15.582;2023-09-08T00:03:50;96432.03;;;11.90;100.00
75438;BME280;64015;49.392;15.582;2023-09-08T00:06:15;96434.66;;;11.85;100.00
75438;BME280;64015;49.392;15.582;2023-09-08T00:08:41;96421.94;;;11.77;100.00
75438;BME280;64015;49.392;15.582;2023-09-08T00:11:08;96434.94;;;11.84;100.00
75438;BME280;64015;49.392;15.582;2023-09-08T00:13:34;96434.13;;;11.83;100.00
75438;BME280;64015;49.392;15.582;2023-09-08T00:15:59;96427.75;;;11.79;100.00
75438;BME280;64015;49.392;15.582;2023-09-08T00:18:25;96429.84;;;11.77;100.00
75438;BME280;64015;49.392;15.582;2023-09-08T00:20:50;96433.25;;;11.73;100.00
75438;BME280;64015;49.392;15.582;2023-09-08T00:23:16;96416.03;;;11.65;100.00
75438;BME280;64015;49.392;15.582;2023-09-08T00:25:41;96418.16;;;11.63;100.00
75438;BME280;64015;49.392;15.582;2023-09-08T00:28:07;96413.34;;;11.55;100.00
75438;BME280;64015;49.392;15.582;2023-09-08T00:30:33;96412.56;;;11.54;100.00
75438;BME280;64015;49.392;15.582;2023-09-08T00:32:59;96428.16;;;11.56;100.00
75438;BME280;64015;49.392;15.582;2023-09-08T00:35:24;96419.38;;;11.45;100.00
75438;BME280;64015;49.392;15.582;2023-09-08T00:37:50;96427.84;;;11.47;100.00
75438;BME280;64015;49.392;15.582;2023-09-08T00:40:16;96405.06;;;11.36;100.00
75438;BME280;64015;49.392;15.582;2023-09-08T00:42:42;96422.53;;;11.42;100.00
75438;BME280;64015;49.392;15.582;2023-09-08T00:45:07;96421.97;;;11.40;100.00
75438;BME280;64015;49.392;15.582;2023-09-08T00:47:33;96419.63;;;11.39;100.00
75438;BME280;64015;49.392;15.582;2023-09-08T00:50:02;96420.66;;;11.38;100.00
75438;BME280;64015;49.392;15.582;2023-09-08T00:52:28;96430.13;;;11.34;100.00
75438;BME280;64015;49.392;15.582;2023-09-08T00:54:58;96427.47;;;11.29;100.00
75438;BME280;64015;49.392;15.582;2023-09-08T00:57:24;96434.59;;;11.28;100.00
75438;BME280;64015;49.392;15.582;2023-09-08T00:59:50;96433.25;;;11.26;100.00
75438;BME280;64015;49.392;15.582;2023-09-08T01:02:16;96429.56;;;11.27;100.00
75438;BME280;64015;49.392;15.582;2023-09-08T01:04:41;96430.31;;;11.22;100.00
75438;BME280;64015;49.392;15.582;2023-09-08T01:07:08;96428.22;;;11.19;100.00
75438;BME280;64015;49.392;15.582;2023-09-08T01:09:34;96419.47;;;11.18;100.00
75438;BME280;64015;49.392;15.582;2023-09-08T01:12:03;96412.53;;;11.07;100.00
75438;BME280;64015;49.392;15.582;2023-09-08T01:14:29;96419.38;;;11.03;100.00
75438;BME280;64015;49.392;15.582;2023-09-08T01:16:55;96421.44;;;10.96;100.00
75438;BME280;64015;49.392;15.582;2023-09-08T01:19:20;96426.69;;;10.91;100.00
75438;BME280;64015;49.392;15.582;2023-09-08T01:24:39;96426.13;;;10.89;100.00
75438;BME280;64015;49.392;15.582;2023-09-08T01:27:12;96415.03;;;10.87;100.00
75438;BME280;64015;49.392;15.582;2023-09-08T01:29:40;96413.97;;;10.83;100.00
75438;BME280;64015;49.392;15.582;2023-09-08T01:32:08;96412.38;;;10.82;100.00
75438;BME280;64015;49.392;15.582;2023-09-08T01:34:35;96413.97;;;10.83;100.00
75438;BME280;64015;49.392;15.582;2023-09-08T01:37:02;96408.88;;;10.76;100.00
75438;BME280;64015;49.392;15.582;2023-09-08T01:39:29;96411.03;;;10.79;100.00
75438;BME280;64015;49.392;15.582;2023-09-08T01:41:55;96415.25;;;10.80;100.00
75438;BME280;64015;49.392;15.582;2023-09-08T01:44:20;96408.59;;;10.73;100.00
75438;BME280;64015;49.392;15.582;2023-09-08T01:46:48;96400.06;;;10.66;100.00
75438;BME280;64015;49.392;15.582;2023-09-08T01:49:13;96411.16;;;10.63;100.00
75438;BME280;64015;49.392;15.582;2023-09-08T01:51:39;96405.88;;;10.63;100.00
75438;BME280;64015;49.392;15.582;2023-09-08T01:54:04;96409.59;;;10.67;100.00
75438;BME280;64015;49.392;15.582;2023-09-08T01:56:30;96407.13;;;10.55;100.00
75438;BME280;64015;49.392;15.582;2023-09-08T01:58:56;96412.13;;;10.57;100.00
75438;BME280;64015;49.392;15.582;2023-09-08T02:01:21;96413.25;;;10.61;100.00
75438;BME280;64015;49.392;15.582;2023-09-08T02:03:47;96415.78;;;10.51;100.00
75438;BME280;64015;49.392;15.582;2023-09-08T02:06:13;96422.16;;;10.55;100.00
75438;BME280;64015;49.392;15.582;2023-09-08T02:08:38;96411.56;;;10.50;100.00
75438;BME280;64015;49.392;15.582;2023-09-08T02:11:04;96419.47;;;10.50;100.00
75438;BME280;64015;49.392;15.582;2023-09-08T02:13:29;96423.44;;;10.52;100.00
75438;BME280;64015;49.392;15.582;2023-09-08T02:15:55;96415.31;;;10.59;100.00
75438;BME280;64015;49.392;15.582;2023-09-08T02:18:20;96415.22;;;10.48;100.00
75438;BME280;64015;49.392;15.582;2023-09-08T02:20:46;96422.63;;;10.46;100.00
75438;BME280;64015;49.392;15.582;2023-09-08T02:23:11;96428.94;;;10.45;100.00
75438;BME280;64015;49.392;15.582;2023-09-08T02:25:37;96417.75;;;10.33;100.00
75438;BME280;64015;49.392;15.582;2023-09-08T02:28:03;96418.78;;;10.32;100.00
75438;BME280;64015;49.392;15.582;2023-09-08T02:30:29;96411.81;;;10.21;100.00
75438;BME280;64015;49.392;15.582;2023-09-08T02:32:54;96412.53;;;10.17;100.00
75438;BME280;64015;49.392;15.582;2023-09-08T02:35:23;96408.75;;;10.07;100.00
75438;BME280;64015;49.392;15.582;2023-09-08T02:37:49;96419.84;;;10.09;100.00
75438;BME280;64015;49.392;15.582;2023-09-08T02:40:15;96416.47;;;10.14;100.00
75438;BME280;64015;49.392;15.582;2023-09-08T02:42:40;96418.53;;;10.12;100.00
75438;BME280;64015;49.392;15.582;2023-09-08T02:45:06;96420.66;;;10.10;100.00
75438;BME280;64015;49.392;15.582;2023-09-08T02:47:32;96407.47;;;10.10;100.00
75438;BME280;64015;49.392;15.582;2023-09-08T02:49:57;96408.50;;;10.09;100.00
75438;BME280;64015;49.392;15.582;2023-09-08T02:52:23;96414.06;;;10.13;100.00
75438;BME280;64015;49.392;15.582;2023-09-08T02:54:49;96405.31;;;10.07;100.00
75438;BME280;64015;49.392;15.582;2023-09-08T02:57:14;96413.22;;;10.07;100.00
75438;BME280;64015;49.392;15.582;2023-09-08T02:59:40;96399.38;;;9.95;100.00
75438;BME280;64015;49.392;15.582;2023-09-08T03:02:05;96404.84;;;10.10;100.00
75438;BME280;64015;49.392;15.582;2023-09-08T03:04:31;96401.88;;;10.06;100.00
75438;BME280;64015;49.392;15.582;2023-09-08T03:06:57;96407.41;;;10.05;100.00
75438;BME280;64015;49.392;15.582;2023-09-08T03:09:22;96405.44;;;9.95;100.00
75438;BME280;64015;49.392;15.582;2023-09-08T03:11:48;96400.75;;;9.76;100.00
75438;BME280;64015;49.392;15.582;2023-09-08T03:14:14;96393.47;;;9.61;100.00
75438;BME280;64015;49.392;15.582;2023-09-08T03:16:39;96409.16;;;9.72;100.00
75438;BME280;64015;49.392;15.582;2023-09-08T03:19:05;96386.38;;;9.61;100.00
75438;BME280;64015;49.392;15.582;2023-09-08T03:21:31;96394.63;;;9.70;100.00
75438;BME280;64015;49.392;15.582;2023-09-08T03:23:56;96407.59;;;9.77;100.00
75438;BME280;64015;49.392;15.582;2023-09-08T03:26:22;96398.06;;;9.70;100.00
75438;BME280;64015;49.392;15.582;2023-09-08T03:28:48;96404.84;;;9.66;100.00
75438;BME280;64015;49.392;15.582;2023-09-08T03:31:13;96397.97;;;9.65;100.00
75438;BME280;64015;49.392;15.582;2023-09-08T03:33:39;96394.31;;;9.66;100.00
75438;BME280;64015;49.392;15.582;2023-09-08T03:36:04;96397.69;;;9.62;100.00
75438;BME280;64015;49.392;15.582;2023-09-08T03:38:30;96374.09;;;9.50;100.00
75438;BME280;64015;49.392;15.582;2023-09-08T03:40:56;96393.38;;;9.56;100.00
75438;BME280;64015;49.392;15.582;2023-09-08T03:43:21;96389.00;;;9.61;100.00
75438;BME280;64015;49.392;15.582;2023-09-08T03:45:47;96382.31;;;9.54;100.00
75438;BME280;64015;49.392;15.582;2023-09-08T03:48:13;96396.09;;;9.61;100.00
75438;BME280;64015;49.392;15.582;2023-09-08T03:50:38;96396.56;;;9.58;100.00
75438;BME280;64015;49.392;15.582;2023-09-08T03:53:04;96373.50;;;9.43;100.00
75438;BME280;64015;49.392;15.582;2023-09-08T03:55:29;96398.97;;;9.59;100.00
75438;BME280;64015;49.392;15.582;2023-09-08T03:57:55;96401.13;;;9.62;100.00
75438;BME280;64015;49.392;15.582;2023-09-08T04:00:21;96388.38;;;9.54;100.00
75438;BME280;64015;49.392;15.582;2023-09-08T04:02:48;96396.28;;;9.54;100.00
75438;BME280;64015;49.392;15.582;2023-09-08T04:05:16;96367.88;;;9.34;100.00
75438;BME280;64015;49.392;15.582;2023-09-08T04:07:42;96392.06;;;9.53;100.00
75438;BME280;64015;49.392;15.582;2023-09-08T04:10:08;96382.44;;;9.42;100.00
75438;BME280;64015;49.392;15.582;2023-09-08T04:12:34;96391.38;;;9.41;100.00
75438;BME280;64015;49.392;15.582;2023-09-08T04:14:59;96398.72;;;9.39;100.00
75438;BME280;64015;49.392;15.582;2023-09-08T04:17:25;96394.25;;;9.40;100.00
75438;BME280;64015;49.392;15.582;2023-09-08T04:19:50;96398.47;;;9.41;100.00
75438;BME280;64015;49.392;15.582;2023-09-08T04:22:16;96406.56;;;9.56;100.00
75438;BME280;64015;49.392;15.582;2023-09-08T04:24:42;96397.25;;;9.48;100.00
75438;BME280;64015;49.392;15.582;2023-09-08T04:27:07;96398.78;;;9.44;100.00
75438;BME280;64015;49.392;15.582;2023-09-08T04:29:34;96399.28;;;9.41;100.00
75438;BME280;64015;49.392;15.582;2023-09-08T04:32:00;96402.88;;;9.35;100.00
75438;BME280;64015;49.392;15.582;2023-09-08T04:34:26;96398.47;;;9.41;100.00
75438;BME280;64015;49.392;15.582;2023-09-08T04:36:51;96406.59;;;9.39;100.00
75438;BME280;64015;49.392;15.582;2023-09-08T04:39:17;96391.06;;;9.38;100.00
75438;BME280;64015;49.392;15.582;2023-09-08T04:41:43;96407.34;;;9.34;100.00
75438;BME280;64015;49.392;15.582;2023-09-08T04:44:09;96407.97;;;9.42;100.00
75438;BME280;64015;49.392;15.582;2023-09-08T04:46:35;96410.91;;;9.45;100.00
75438;BME280;64015;49.392;15.582;2023-09-08T04:49:01;96410.84;;;9.40;100.00
75438;BME280;64015;49.392;15.582;2023-09-08T04:51:27;96407.72;;;9.43;100.00
75438;BME280;64015;49.392;15.582;2023-09-08T04:53:52;96410.91;;;9.45;100.00
75438;BME280;64015;49.392;15.582;2023-09-08T04:56:18;96403.78;;;9.46;100.00
75438;BME280;64015;49.392;15.582;2023-09-08T04:58:43;96407.22;;;9.46;100.00
75438;BME280;64015;49.392;15.582;2023-09-08T05:01:09;96409.19;;;9.56;100.00
75438;BME280;64015;49.392;15.582;2023-09-08T05:03:35;96417.16;;;9.61;100.00
75438;BME280;64015;49.392;15.582;2023-09-08T05:06:00;96415.63;;;9.65;100.00
75438;BME280;64015;49.392;15.582;2023-09-08T05:08:27;96414.44;;;9.72;100.00
75438;BME280;64015;49.392;15.582;2023-09-08T05:10:53;96410.84;;;9.84;100.00
75438;BME280;64015;49.392;15.582;2023-09-08T05:13:19;96397.53;;;9.95;100.00
75438;BME280;64015;49.392;15.582;2023-09-08T05:15:44;96411.88;;;10.04;100.00
75438;BME280;64015;49.392;15.582;2023-09-08T05:18:14;96401.81;;;10.01;100.00
75438;BME280;64015;49.392;15.582;2023-09-08T05:20:41;96394.78;;;10.07;100.00
75438;BME280;64015;49.392;15.582;2023-09-08T05:23:07;96401.25;;;10.21;100.00
75438;BME280;64015;49.392;15.582;2023-09-08T05:25:32;96416.69;;;10.34;100.00
75438;BME280;64015;49.392;15.582;2023-09-08T05:27:58;96415.78;;;10.51;100.00
75438;BME280;64015;49.392;15.582;2023-09-08T05:30:24;96413.47;;;10.59;100.00
75438;BME280;64015;49.392;15.582;2023-09-08T05:32:49;96422.75;;;10.62;100.00
75438;BME280;64015;49.392;15.582;2023-09-08T05:35:15;96426.53;;;10.71;100.00
75438;BME280;64015;49.392;15.582;2023-09-08T05:37:41;96421.81;;;10.78;100.00
75438;BME280;64015;49.392;15.582;2023-09-08T05:40:07;96410.47;;;10.77;100.00
75438;BME280;64015;49.392;15.582;2023-09-08T05:42:32;96397.03;;;10.79;100.00
75438;BME280;64015;49.392;15.582;2023-09-08T05:44:58;96403.75;;;10.97;100.00
75438;BME280;64015;49.392;15.582;2023-09-08T05:47:24;96414.69;;;11.15;100.00
75438;BME280;64015;49.392;15.582;2023-09-08T05:49:49;96424.31;;;11.32;100.00
75438;BME280;64015;49.392;15.582;2023-09-08T05:52:15;96426.50;;;11.45;100.00
75438;BME280;64015;49.392;15.582;2023-09-08T05:54:41;96417.53;;;11.51;100.00
75438;BME280;64015;49.392;15.582;2023-09-08T05:57:07;96416.03;;;11.65;100.00
75438;BME280;64015;49.392;15.582;2023-09-08T05:59:32;96426.75;;;11.90;100.00
75438;BME280;64015;49.392;15.582;2023-09-08T06:01:58;96432.06;;;12.06;100.00
75438;BME280;64015;49.392;15.582;2023-09-08T06:04:23;96416.81;;;12.23;100.00
75438;BME280;64015;49.392;15.582;2023-09-08T06:06:49;96427.41;;;12.43;100.00
75438;BME280;64015;49.392;15.582;2023-09-08T06:09:15;96395.94;;;12.42;100.00
75438;BME280;64015;49.392;15.582;2023-09-08T06:11:42;96418.47;;;12.75;100.00
75438;BME280;64015;49.392;15.582;2023-09-08T06:14:07;96419.25;;;12.95;100.00
75438;BME280;64015;49.392;15.582;2023-09-08T06:16:33;96423.50;;;13.22;100.00
75438;BME280;64015;49.392;15.582;2023-09-08T06:18:58;96411.28;;;13.36;100.00
75438;BME280;64015;49.392;15.582;2023-09-08T06:21:26;96424.44;;;13.66;100.00
75438;BME280;64015;49.392;15.582;2023-09-08T06:23:51;96421.69;;;13.97;100.00
75438;BME280;64015;49.392;15.582;2023-09-08T06:26:17;96416.34;;;14.02;100.00
75438;BME280;64015;49.392;15.582;2023-09-08T06:28:42;96421.06;;;14.15;100.00
75438;BME280;64015;49.392;15.582;2023-09-08T06:31:09;96421.31;;;14.18;100.00
75438;BME280;64015;49.392;15.582;2023-09-08T06:33:35;96417.75;;;14.43;100.00
75438;BME280;64015;49.392;15.582;2023-09-08T06:36:01;96409.69;;;14.59;100.00
75438;BME280;64015;49.392;15.582;2023-09-08T06:38:26;96411.53;;;14.63;100.00
75438;BME280;64015;49.392;15.582;2023-09-08T06:40:52;96406.53;;;14.90;100.00
75438;BME280;64015;49.392;15.582;2023-09-08T06:43:19;96403.66;;;15.16;100.00
75438;BME280;64015;49.392;15.582;2023-09-08T06:45:50;96400.34;;;15.29;100.00
75438;BME280;64015;49.392;15.582;2023-09-08T06:48:16;96405.66;;;15.53;100.00
75438;BME280;64015;49.392;15.582;2023-09-08T06:50:43;96414.09;;;15.65;99.97
75438;BME280;64015;49.392;15.582;2023-09-08T06:53:09;96400.31;;;15.82;96.86
75438;BME280;64015;49.392;15.582;2023-09-08T06:55:36;96401.34;;;16.04;96.66
75438;BME280;64015;49.392;15.582;2023-09-08T06:58:01;96403.09;;;16.14;94.38
75438;BME280;64015;49.392;15.582;2023-09-08T07:00:29;96398.66;;;16.28;92.13
75438;BME280;64015;49.392;15.582;2023-09-08T07:02:55;96403.38;;;16.31;92.89
75438;BME280;64015;49.392;15.582;2023-09-08T07:05:21;96397.50;;;16.53;90.44
75438;BME280;64015;49.392;15.582;2023-09-08T07:07:47;96393.91;;;16.63;90.11
75438;BME280;64015;49.392;15.582;2023-09-08T07:10:12;96393.19;;;16.76;88.31
75438;BME280;64015;49.392;15.582;2023-09-08T07:12:38;96399.34;;;16.90;87.57
75438;BME280;64015;49.392;15.582;2023-09-08T07:15:04;96391.47;;;16.99;86.26
75438;BME280;64015;49.392;15.582;2023-09-08T07:17:30;96387.56;;;17.10;84.69
75438;BME280;64015;49.392;15.582;2023-09-08T07:19:56;96395.09;;;17.22;83.94
75438;BME280;64015;49.392;15.582;2023-09-08T07:22:22;96390.38;;;17.32;84.45
75438;BME280;64015;49.392;15.582;2023-09-08T07:24:48;96393.50;;;17.34;82.80
75438;BME280;64015;49.392;15.582;2023-09-08T07:27:13;96404.72;;;17.50;84.22
75438;BME280;64015;49.392;15.582;2023-09-08T07:29:40;96389.31;;;17.61;82.80
75438;BME280;64015;49.392;15.582;2023-09-08T07:32:06;96397.13;;;17.71;81.94
75438;BME280;64015;49.392;15.582;2023-09-08T07:34:32;96383.31;;;17.69;79.97
75438;BME280;64015;49.392;15.582;2023-09-08T07:37:00;96403.66;;;17.92;79.67
75438;BME280;64015;49.392;15.582;2023-09-08T07:39:25;96396.03;;;17.99;79.76
75438;BME280;64015;49.392;15.582;2023-09-08T07:41:52;96401.94;;;18.10;79.66
75438;BME280;64015;49.392;15.582;2023-09-08T07:44:19;96397.38;;;18.24;78.47
75438;BME280;64015;49.392;15.582;2023-09-08T07:46:44;96410.53;;;18.34;77.66
75438;BME280;64015;49.392;15.582;2023-09-08T07:49:11;96405.56;;;18.41;77.47
75438;BME280;64015;49.392;15.582;2023-09-08T07:51:37;96406.22;;;18.60;76.38
75438;BME280;64015;49.392;15.582;2023-09-08T07:54:03;96403.78;;;18.73;76.57
75438;BME280;64015;49.392;15.582;2023-09-08T07:56:29;96403.47;;;18.74;75.80
75438;BME280;64015;49.392;15.582;2023-09-08T07:58:55;96407.63;;;18.80;74.01
75438;BME280;64015;49.392;15.582;2023-09-08T08:01:20;96401.97;;;18.82;73.75
75438;BME280;64015;49.392;15.582;2023-09-08T08:03:46;96408.72;;;19.01;73.28
75438;BME280;64015;49.392;15.582;2023-09-08T08:06:12;96410.63;;;19.10;72.51
75438;BME280;64015;49.392;15.582;2023-09-08T08:08:37;96399.88;;;19.23;72.15
75438;BME280;64015;49.392;15.582;2023-09-08T08:11:14;96404.00;;;19.29;71.78
75438;BME280;64015;49.392;15.582;2023-09-08T08:13:40;96392.50;;;19.29;70.67
75438;BME280;64015;49.392;15.582;2023-09-08T08:16:06;96399.06;;;19.45;69.35
75438;BME280;64015;49.392;15.582;2023-09-08T08:18:32;96391.81;;;19.46;68.84
75438;BME280;64015;49.392;15.582;2023-09-08T08:20:57;96395.69;;;19.62;67.71
75438;BME280;64015;49.392;15.582;2023-09-08T08:23:23;96391.28;;;19.66;68.46
75438;BME280;64015;49.392;15.582;2023-09-08T08:25:49;96382.19;;;19.75;67.40
75438;BME280;64015;49.392;15.582;2023-09-08T08:28:15;96383.19;;;19.88;67.43
75438;BME280;64015;49.392;15.582;2023-09-08T08:30:40;96369.19;;;19.91;66.38
75438;BME280;64015;49.392;15.582;2023-09-08T08:33:06;96383.50;;;19.95;65.83
75438;BME280;64015;49.392;15.582;2023-09-08T08:35:41;96347.28;;;19.98;66.18
75438;BME280;64015;49.392;15.582;2023-09-08T08:38:10;96364.94;;;20.07;66.01
75438;BME280;64015;49.392;15.582;2023-09-08T08:40:38;96346.81;;;20.13;64.74
75438;BME280;64015;49.392;15.582;2023-09-08T08:43:05;96365.75;;;20.25;64.22
75438;BME280;64015;49.392;15.582;2023-09-08T08:45:41;96382.97;;;20.50;64.17
75438;BME280;64015;49.392;15.582;2023-09-08T08:48:13;96379.38;;;20.63;65.14
75438;BME280;64015;49.392;15.582;2023-09-08T08:50:48;96377.94;;;20.74;62.88
75438;BME280;64015;49.392;15.582;2023-09-08T08:53:17;96374.94;;;20.84;62.38
75438;BME280;64015;49.392;15.582;2023-09-08T08:56:27;96372.06;;;20.98;62.02
75438;BME280;64015;49.392;15.582;2023-09-08T08:58:53;96370.00;;;21.04;61.26
75438;BME280;64015;49.392;15.582;2023-09-08T09:01:20;96363.19;;;21.15;61.33
75438;BME280;64015;49.392;15.582;2023-09-08T09:03:49;96369.66;;;21.31;59.76
75438;BME280;64015;49.392;15.582;2023-09-08T09:06:15;96359.38;;;21.33;58.00
75438;BME280;64015;49.392;15.582;2023-09-08T09:08:43;96368.03;;;21.47;58.78
75438;BME280;64015;49.392;15.582;2023-09-08T09:11:10;96372.72;;;21.59;56.84
75438;BME280;64015;49.392;15.582;2023-09-08T09:13:37;96373.13;;;21.70;57.33
75438;BME280;64015;49.392;15.582;2023-09-08T09:16:03;96345.78;;;21.76;56.25
75438;BME280;64015;49.392;15.582;2023-09-08T09:21:20;96346.16;;;21.95;55.20
75438;BME280;64015;49.392;15.582;2023-09-08T09:23:45;96341.00;;;22.11;56.00
75438;BME280;64015;49.392;15.582;2023-09-08T09:26:23;96361.13;;;22.26;53.90
75438;BME280;64015;49.392;15.582;2023-09-08T09:28:50;96353.53;;;22.28;53.66
75438;BME280;64015;49.392;15.582;2023-09-08T09:31:35;96338.25;;;22.20;52.48
75438;BME280;64015;49.392;15.582;2023-09-08T09:34:04;96360.03;;;22.48;52.38
75438;BME280;64015;49.392;15.582;2023-09-08T09:36:30;96358.19;;;22.60;52.43
75438;BME280;64015;49.392;15.582;2023-09-08T09:39:00;96339.44;;;22.52;51.38
75438;BME280;64015;49.392;15.582;2023-09-08T09:41:29;96359.00;;;22.73;51.31
75438;BME280;64015;49.392;15.582;2023-09-08T09:43:57;96318.38;;;22.54;50.83
75438;BME280;64015;49.392;15.582;2023-09-08T09:46:23;96345.84;;;22.80;49.65
75438;BME280;64015;49.392;15.582;2023-09-08T09:48:54;96337.72;;;22.89;50.35
75438;BME280;64015;49.392;15.582;2023-09-08T09:51:22;96346.41;;;23.06;49.15
75438;BME280;64015;49.392;15.582;2023-09-08T09:53:51;96354.25;;;23.12;48.09
75438;BME280;64015;49.392;15.582;2023-09-08T09:56:17;96345.06;;;23.13;48.46
75438;BME280;64015;49.392;15.582;2023-09-08T09:58:44;96352.69;;;23.23;48.59
75438;BME280;64015;49.392;15.582;2023-09-08T10:01:10;96348.00;;;23.32;48.75
75438;BME280;64015;49.392;15.582;2023-09-08T10:03:39;96341.41;;;23.41;48.73
75438;BME280;64015;49.392;15.582;2023-09-08T10:06:05;96340.31;;;23.55;48.40
75438;BME280;64015;49.392;15.582;2023-09-08T10:08:33;96346.88;;;23.45;45.51
75438;BME280;64015;49.392;15.582;2023-09-08T10:11:07;96354.00;;;23.50;46.61
75438;BME280;64015;49.392;15.582;2023-09-08T10:13:39;96346.59;;;23.59;47.00
75438;BME280;64015;49.392;15.582;2023-09-08T10:16:08;96343.59;;;23.60;46.38
75438;BME280;64015;49.392;15.582;2023-09-08T10:18:39;96335.72;;;23.67;47.06
75438;BME280;64015;49.392;15.582;2023-09-08T10:21:08;96333.94;;;23.71;45.48
75438;BME280;64015;49.392;15.582;2023-09-08T10:23:43;96345.25;;;23.89;45.88
75438;BME280;64015;49.392;15.582;2023-09-08T10:26:11;96346.72;;;23.87;45.51
75438;BME280;64015;49.392;15.582;2023-09-08T10:28:37;96339.75;;;23.98;44.55
75438;BME280;64015;49.392;15.582;2023-09-08T10:31:04;96339.50;;;24.15;43.74
75438;BME280;64015;49.392;15.582;2023-09-08T10:33:31;96334.84;;;24.40;43.55
75438;BME280;64015;49.392;15.582;2023-09-08T10:35:59;96335.59;;;24.80;43.54
75438;BME280;64015;49.392;15.582;2023-09-08T10:38:31;96325.25;;;25.26;41.80
75438;BME280;64015;49.392;15.582;2023-09-08T10:46:10;96311.13;;;30.46;32.63
75438;BME280;64015;49.392;15.582;2023-09-08T10:48:43;96281.56;;;34.91;26.22
75438;BME280;64015;49.392;15.582;2023-09-08T10:51:17;96247.44;;;38.17;21.08
75438;BME280;64015;49.392;15.582;2023-09-08T10:53:46;96271.81;;;40.21;19.75
75438;BME280;64015;49.392;15.582;2023-09-08T10:56:12;96292.75;;;40.10;19.13
75438;BME280;64015;49.392;15.582;2023-09-08T10:58:38;96300.56;;;39.77;18.79
75438;BME280;64015;49.392;15.582;2023-09-08T11:01:04;96305.28;;;40.02;18.43
75438;BME280;64015;49.392;15.582;2023-09-08T11:06:03;96296.34;;;41.47;16.55
75438;BME280;64015;49.392;15.582;2023-09-08T11:08:29;96291.09;;;41.89;16.46
75438;BME280;64015;49.392;15.582;2023-09-08T11:10:56;96303.28;;;42.28;16.33
75438;BME280;64015;49.392;15.582;2023-09-08T11:13:22;96294.34;;;41.38;16.95
75438;BME280;64015;49.392;15.582;2023-09-08T11:15:51;96301.13;;;42.50;15.94
75438;BME280;64015;49.392;15.582;2023-09-08T11:18:17;96292.97;;;42.47;15.82
75438;BME280;64015;49.392;15.582;2023-09-08T11:20:45;96295.63;;;41.15;16.52
75438;BME280;64015;49.392;15.582;2023-09-08T11:23:11;96301.91;;;42.51;15.74
75438;BME280;64015;49.392;15.582;2023-09-08T11:25:36;96284.78;;;43.54;15.24
75438;BME280;64015;49.392;15.582;2023-09-08T11:28:03;96278.34;;;43.39;15.28
75438;BME280;64015;49.392;15.582;2023-09-08T11:30:31;96289.19;;;43.37;15.38
75438;BME280;64015;49.392;15.582;2023-09-08T11:32:56;96294.69;;;43.56;15.41
75438;BME280;64015;49.392;15.582;2023-09-08T11:35:26;96291.25;;;43.28;15.44
75438;BME280;64015;49.392;15.582;2023-09-08T11:37:52;96291.50;;;42.97;15.26
75438;BME280;64015;49.392;15.582;2023-09-08T11:40:20;96284.00;;;43.12;15.71
75438;BME280;64015;49.392;15.582;2023-09-08T11:42:47;96286.16;;;43.26;15.21
75438;BME280;64015;49.392;15.582;2023-09-08T11:45:14;96276.03;;;43.38;15.33
75438;BME280;64015;49.392;15.582;2023-09-08T11:47:43;96266.81;;;42.99;15.43
75438;BME280;64015;49.392;15.582;2023-09-08T11:50:10;96273.16;;;42.90;16.25
75438;BME280;64015;49.392;15.582;2023-09-08T11:52:43;96267.28;;;43.63;15.53
75438;BME280;64015;49.392;15.582;2023-09-08T11:55:10;96268.66;;;42.93;16.01
75438;BME280;64015;49.392;15.582;2023-09-08T11:57:37;96273.53;;;40.41;17.60
75438;BME280;64015;49.392;15.582;2023-09-08T12:00:04;96268.91;;;42.53;16.64
75438;BME280;64015;49.392;15.582;2023-09-08T12:02:37;96269.13;;;43.00;16.35
75438;BME280;64015;49.392;15.582;2023-09-08T12:05:03;96267.03;;;43.28;15.55
75438;BME280;64015;49.392;15.582;2023-09-08T12:07:29;96261.84;;;43.69;15.54
75438;BME280;64015;49.392;15.582;2023-09-08T12:09:55;96263.69;;;42.09;16.77
75438;BME280;64015;49.392;15.582;2023-09-08T12:12:21;96266.41;;;41.82;17.11
75438;BME280;64015;49.392;15.582;2023-09-08T12:14:46;96250.75;;;42.42;16.59
75438;BME280;64015;49.392;15.582;2023-09-08T12:17:12;96264.31;;;42.04;16.49
75438;BME280;64015;49.392;15.582;2023-09-08T12:19:42;96261.66;;;41.91;16.23
75438;BME280;64015;49.392;15.582;2023-09-08T12:22:08;96257.63;;;41.65;17.54
75438;BME280;64015;49.392;15.582;2023-09-08T12:27:19;96257.88;;;41.40;17.64
75438;BME280;64015;49.392;15.582;2023-09-08T12:29:52;96244.59;;;40.85;18.08
75438;BME280;64015;49.392;15.582;2023-09-08T12:32:18;96249.25;;;40.45;17.21
75438;BME280;64015;49.392;15.582;2023-09-08T12:34:45;96240.97;;;41.07;17.53
75438;BME280;64015;49.392;15.582;2023-09-08T12:37:10;96236.47;;;41.31;17.90
75438;BME280;64015;49.392;15.582;2023-09-08T12:39:38;96249.50;;;40.59;18.63
75438;BME280;64015;49.392;15.582;2023-09-08T12:42:05;96239.66;;;41.20;17.93
75438;BME280;64015;49.392;15.582;2023-09-08T12:44:30;96228.13;;;41.89;17.23
75438;BME280;64015;49.392;15.582;2023-09-08T12:46:56;96230.31;;;41.36;17.22
75438;BME280;64015;49.392;15.582;2023-09-08T12:49:21;96237.19;;;40.60;17.49
75438;BME280;64015;49.392;15.582;2023-09-08T12:51:47;96228.16;;;41.31;17.54
75438;BME280;64015;49.392;15.582;2023-09-08T12:54:13;96228.94;;;39.82;18.83
75438;BME280;64015;49.392;15.582;2023-09-08T12:56:39;96214.41;;;39.69;19.06
75438;BME280;64015;49.392;15.582;2023-09-08T12:59:07;96227.69;;;40.61;18.88